createdAt,value
2018-12-29T00:02:20.650Z,13.70
2018-12-29T00:04:47.912Z,13.73
2018-12-29T00:07:15.156Z,16.50
2018-12-29T00:09:42.378Z,16.80
2018-12-29T00:12:09.611Z,13.87
2018-12-29T00:14:36.824Z,15.27
2018-12-29T00:17:04.090Z,14.03
2018-12-29T00:19:31.240Z,16.67
2018-12-29T00:21:58.478Z,12.07
2018-12-29T00:24:25.689Z,14.50
2018-12-29T00:26:52.855Z,16.23
2018-12-29T00:29:20.103Z,14.07
2018-12-29T00:31:47.311Z,14.17
2018-12-29T00:34:14.561Z,15.97
2018-12-29T00:36:41.780Z,14.30
2018-12-29T00:39:08.907Z,15.27
2018-12-29T00:41:36.143Z,15.67
2018-12-29T00:44:03.405Z,14.43
2018-12-29T00:46:30.665Z,18.10
2018-12-29T00:48:57.769Z,17.07
2018-12-29T00:51:24.918Z,17.27
2018-12-29T00:53:52.063Z,17.27
2018-12-29T00:56:19.325Z,16.37
2018-12-29T00:58:46.479Z,17.33
2018-12-29T01:01:13.725Z,17.47
2018-12-29T01:03:40.978Z,19.57
2018-12-29T01:06:08.190Z,16.67
2018-12-29T01:08:35.454Z,17.70
2018-12-29T01:11:02.687Z,17.03
2018-12-29T01:13:29.815Z,18.27
2018-12-29T01:15:57.078Z,17.47
2018-12-29T01:18:24.202Z,17.47
2018-12-29T01:20:51.426Z,18.13
2018-12-29T01:23:18.651Z,17.67
2018-12-29T01:25:45.894Z,17.80
2018-12-29T01:28:13.118Z,17.23
2018-12-29T01:30:40.460Z,16.57
2018-12-29T01:33:07.607Z,17.50
2018-12-29T01:35:34.809Z,18.00
2018-12-29T01:38:02.074Z,21.20
2018-12-29T01:40:29.273Z,20.40
2018-12-29T01:42:56.423Z,17.70
2018-12-29T01:45:23.515Z,16.60
2018-12-29T01:47:50.786Z,18.60
2018-12-29T01:50:18.026Z,18.67
2018-12-29T01:52:45.364Z,19.10
2018-12-29T01:55:12.498Z,23.07
2018-12-29T01:57:39.786Z,18.00
2018-12-29T02:00:07.062Z,20.53
2018-12-29T02:02:34.207Z,23.60
2018-12-29T02:05:01.428Z,20.83
2018-12-29T02:07:28.682Z,21.20
2018-12-29T02:09:55.950Z,20.00
2018-12-29T02:12:23.155Z,22.10
2018-12-29T02:14:50.304Z,24.77
2018-12-29T02:17:17.453Z,20.87
2018-12-29T02:19:44.722Z,22.10
2018-12-29T02:22:11.940Z,25.03
2018-12-29T02:24:39.206Z,22.13
2018-12-29T02:27:06.325Z,19.77
2018-12-29T02:29:33.573Z,22.47
2018-12-29T02:32:00.690Z,22.20
2018-12-29T02:34:27.833Z,20.53
2018-12-29T02:36:54.965Z,20.73
2018-12-29T02:39:22.174Z,20.47
2018-12-29T02:41:49.305Z,21.00
2018-12-29T02:44:16.541Z,20.73
2018-12-29T02:46:43.770Z,21.07
2018-12-29T02:49:11.004Z,21.73
2018-12-29T02:51:38.244Z,26.40
2018-12-29T02:54:05.482Z,24.17
2018-12-29T02:56:32.816Z,27.17
2018-12-29T02:59:00.066Z,31.43
2018-12-29T03:01:27.283Z,30.17
2018-12-29T03:03:54.499Z,30.00
2018-12-29T03:06:21.620Z,28.90
2018-12-29T03:08:48.853Z,35.80
2018-12-29T03:11:16.070Z,32.80
2018-12-29T03:13:43.407Z,33.23
2018-12-29T03:16:10.623Z,34.63
2018-12-29T03:18:37.775Z,36.23
2018-12-29T03:21:05.158Z,32.50
2018-12-29T03:23:32.296Z,32.27
2018-12-29T03:25:59.502Z,35.63
2018-12-29T03:28:26.648Z,34.90
2018-12-29T03:30:53.856Z,37.33
2018-12-29T03:33:21.060Z,36.40
2018-12-29T03:35:48.262Z,39.97
2018-12-29T03:38:15.480Z,38.43
2018-12-29T03:40:42.729Z,39.33
2018-12-29T03:43:31.110Z,40.80
2018-12-29T03:45:59.643Z,39.87
2018-12-29T03:48:26.941Z,42.77
2018-12-29T03:50:54.156Z,40.03
2018-12-29T03:53:21.303Z,37.03
2018-12-29T03:55:48.522Z,39.63
2018-12-29T03:58:15.661Z,41.10
2018-12-29T04:00:42.982Z,36.37
2018-12-29T04:03:10.257Z,36.87
2018-12-29T04:05:37.401Z,36.00
2018-12-29T04:08:04.510Z,40.57
2018-12-29T04:10:31.740Z,42.47
2018-12-29T04:12:59.363Z,40.27
2018-12-29T04:15:26.611Z,32.17
2018-12-29T04:17:53.840Z,43.57
2018-12-29T04:20:21.000Z,37.17
2018-12-29T04:22:48.239Z,38.37
2018-12-29T04:25:15.394Z,35.63
2018-12-29T04:27:42.504Z,35.77
2018-12-29T04:30:09.738Z,38.60
2018-12-29T04:32:36.976Z,34.30
2018-12-29T04:35:04.506Z,39.83
2018-12-29T04:37:31.710Z,33.60
2018-12-29T04:39:58.949Z,35.73
2018-12-29T04:42:26.161Z,34.73
2018-12-29T04:44:53.412Z,33.80
2018-12-29T04:47:20.615Z,38.70
2018-12-29T04:49:47.831Z,37.83
2018-12-29T04:52:15.064Z,33.00
2018-12-29T04:54:42.299Z,40.60
2018-12-29T04:57:09.421Z,38.90
2018-12-29T04:59:36.563Z,34.80
2018-12-29T05:02:03.718Z,34.87
2018-12-29T05:04:30.965Z,37.00
2018-12-29T05:06:58.089Z,38.07
2018-12-29T05:09:25.324Z,30.30
2018-12-29T05:11:52.544Z,37.00
2018-12-29T05:14:19.783Z,37.50
2018-12-29T05:16:49.761Z,36.23
2018-12-29T05:19:16.881Z,35.60
2018-12-29T05:21:44.144Z,33.73
2018-12-29T05:24:11.262Z,34.63
2018-12-29T05:26:38.510Z,32.87
2018-12-29T05:29:05.653Z,34.53
2018-12-29T05:31:32.874Z,32.57
2018-12-29T05:34:02.517Z,31.97
2018-12-29T05:36:29.754Z,34.57
2018-12-29T05:38:56.977Z,34.07
2018-12-29T05:41:24.206Z,35.73
2018-12-29T05:43:51.426Z,49.23
2018-12-29T05:46:20.527Z,42.97
2018-12-29T05:48:47.994Z,37.47
2018-12-29T05:51:15.228Z,28.97
2018-12-29T05:53:42.436Z,34.23
2018-12-29T05:56:09.687Z,32.70
2018-12-29T05:58:37.005Z,32.90
2018-12-29T06:01:04.214Z,32.03
2018-12-29T06:03:31.549Z,37.23
2018-12-29T06:05:58.741Z,37.47
2018-12-29T06:08:27.279Z,36.80
2018-12-29T06:10:54.508Z,35.17
2018-12-29T06:13:21.668Z,38.23
2018-12-29T06:15:48.772Z,35.20
2018-12-29T06:18:15.885Z,34.47
2018-12-29T06:20:43.102Z,40.03
2018-12-29T06:23:10.241Z,38.50
2018-12-29T06:25:37.503Z,31.47
2018-12-29T06:28:04.615Z,37.20
2018-12-29T06:30:31.841Z,35.30
2018-12-29T06:32:58.981Z,38.10
2018-12-29T06:35:26.201Z,40.73
2018-12-29T06:37:53.333Z,39.90
2018-12-29T06:40:20.604Z,35.73
2018-12-29T06:42:47.830Z,38.47
2018-12-29T06:45:14.946Z,36.77
2018-12-29T06:47:42.098Z,34.90
2018-12-29T06:50:09.229Z,33.33
2018-12-29T06:52:36.365Z,36.70
2018-12-29T06:55:03.834Z,37.47
2018-12-29T06:57:31.069Z,37.13
2018-12-29T06:59:58.194Z,32.17
2018-12-29T07:02:25.454Z,39.13
2018-12-29T07:04:52.668Z,35.40
2018-12-29T07:07:19.806Z,37.37
2018-12-29T07:09:47.038Z,33.27
2018-12-29T07:12:14.279Z,38.93
2018-12-29T07:14:41.533Z,36.90
2018-12-29T07:17:08.673Z,37.10
2018-12-29T07:19:35.781Z,34.90
2018-12-29T07:22:03.028Z,39.97
2018-12-29T07:24:30.237Z,36.13
2018-12-29T07:26:57.481Z,37.00
2018-12-29T07:29:24.709Z,34.93
2018-12-29T07:31:51.983Z,36.13
2018-12-29T07:34:19.257Z,37.60
2018-12-29T07:36:46.406Z,37.93
2018-12-29T07:39:13.527Z,38.00
2018-12-29T07:41:40.759Z,33.97
2018-12-29T07:44:08.001Z,34.17
2018-12-29T07:46:35.255Z,35.80
2018-12-29T07:49:02.543Z,33.60
2018-12-29T07:51:29.663Z,33.43
2018-12-29T07:53:57.859Z,31.17
2018-12-29T07:56:25.227Z,32.97
2018-12-29T07:58:52.469Z,43.13
2018-12-29T08:01:19.651Z,38.83
2018-12-29T08:03:46.958Z,39.37
2018-12-29T08:06:14.210Z,41.93
2018-12-29T08:08:41.521Z,40.33
2018-12-29T08:11:08.751Z,39.00
2018-12-29T08:13:36.397Z,35.03
2018-12-29T08:16:03.642Z,35.27
2018-12-29T08:18:30.893Z,35.43
2018-12-29T08:20:58.140Z,34.53
2018-12-29T08:23:25.358Z,30.80
2018-12-29T08:25:52.494Z,35.93
2018-12-29T08:28:19.714Z,34.17
2018-12-29T08:30:46.840Z,31.27
2018-12-29T08:33:14.022Z,35.30
2018-12-29T08:35:41.258Z,32.73
2018-12-29T08:38:08.492Z,38.17
2018-12-29T08:40:35.862Z,36.07
2018-12-29T08:43:03.084Z,35.30
2018-12-29T08:45:30.298Z,39.37
2018-12-29T08:47:57.512Z,44.57
2018-12-29T08:50:24.727Z,43.63
2018-12-29T08:52:51.979Z,39.23
2018-12-29T08:55:19.177Z,40.27
2018-12-29T08:57:46.423Z,42.50
2018-12-29T09:00:13.542Z,40.73
2018-12-29T09:02:40.758Z,39.10
2018-12-29T09:05:08.022Z,40.80
2018-12-29T09:07:35.149Z,41.90
2018-12-29T09:10:02.602Z,39.13
2018-12-29T09:12:29.832Z,36.77
2018-12-29T09:14:57.045Z,38.30
2018-12-29T09:17:24.281Z,36.67
2018-12-29T09:19:51.449Z,38.57
2018-12-29T09:22:18.583Z,35.53
2018-12-29T09:24:45.811Z,33.23
2018-12-29T09:27:13.227Z,36.67
2018-12-29T09:29:40.458Z,37.80
2018-12-29T09:32:07.706Z,31.13
2018-12-29T09:34:34.915Z,38.93
2018-12-29T09:37:02.164Z,35.27
2018-12-29T09:39:29.427Z,31.07
2018-12-29T09:41:56.650Z,37.17
2018-12-29T09:44:23.890Z,34.30
2018-12-29T09:46:51.136Z,38.10
2018-12-29T09:49:18.359Z,32.40
2018-12-29T09:51:45.581Z,32.03
2018-12-29T09:54:12.707Z,34.83
2018-12-29T09:56:39.942Z,34.77
2018-12-29T09:59:07.052Z,35.27
2018-12-29T10:01:34.208Z,30.70
2018-12-29T10:04:01.328Z,35.23
2018-12-29T10:06:31.531Z,37.03
2018-12-29T10:08:58.762Z,36.07
2018-12-29T10:11:25.921Z,36.73
2018-12-29T10:13:53.185Z,33.43
2018-12-29T10:16:20.304Z,28.80
2018-12-29T10:18:47.548Z,31.67
2018-12-29T10:21:14.711Z,28.23
2018-12-29T10:23:41.981Z,34.10
2018-12-29T10:26:09.221Z,33.03
2018-12-29T10:28:38.075Z,31.00
2018-12-29T10:31:05.271Z,35.23
2018-12-29T10:33:32.434Z,31.17
2018-12-29T10:35:59.645Z,31.07
2018-12-29T10:38:26.872Z,30.90
2018-12-29T10:40:54.129Z,27.87
2018-12-29T10:43:21.282Z,29.20
2018-12-29T10:45:48.512Z,28.00
2018-12-29T10:48:15.647Z,31.50
2018-12-29T10:50:42.791Z,31.33
2018-12-29T10:53:10.046Z,30.53
2018-12-29T10:55:37.327Z,30.43
2018-12-29T10:58:04.603Z,29.97
2018-12-29T11:00:35.186Z,32.57
2018-12-29T11:03:00.834Z,27.97
2018-12-29T11:05:28.058Z,36.47
2018-12-29T11:07:55.325Z,33.73
2018-12-29T11:10:22.560Z,32.10
2018-12-29T11:12:49.762Z,30.40
2018-12-29T11:15:16.920Z,34.70
2018-12-29T11:17:44.151Z,33.10
2018-12-29T11:20:11.322Z,26.27
2018-12-29T11:22:38.619Z,27.83
2018-12-29T11:25:05.882Z,27.47
2018-12-29T11:27:33.235Z,28.50
2018-12-29T11:30:00.531Z,25.37
2018-12-29T11:32:27.815Z,29.70
2018-12-29T11:34:55.156Z,30.23
2018-12-29T11:37:22.337Z,32.40
2018-12-29T11:39:49.551Z,30.67
2018-12-29T11:42:16.833Z,30.60
2018-12-29T11:44:44.001Z,33.10
2018-12-29T11:47:11.200Z,41.00
2018-12-29T11:49:38.486Z,43.73
2018-12-29T11:52:05.862Z,31.27
2018-12-29T11:54:33.082Z,35.03
2018-12-29T11:57:00.275Z,32.43
2018-12-29T11:59:27.662Z,29.37
2018-12-29T12:01:56.148Z,27.47
2018-12-29T12:04:28.019Z,32.67
2018-12-29T12:06:55.803Z,27.50
2018-12-29T12:09:23.096Z,34.33
2018-12-29T12:11:50.443Z,28.67
2018-12-29T12:14:17.650Z,28.67
2018-12-29T12:16:45.014Z,27.53
2018-12-29T12:19:12.271Z,28.10
2018-12-29T12:21:40.876Z,27.97
2018-12-29T12:24:08.249Z,29.20
2018-12-29T12:26:35.540Z,26.03
2018-12-29T12:29:02.859Z,26.27
2018-12-29T12:31:30.553Z,30.67
2018-12-29T12:33:57.918Z,27.50
2018-12-29T12:36:25.490Z,24.93
2018-12-29T12:38:52.657Z,29.47
2018-12-29T12:41:20.372Z,44.07
2018-12-29T12:43:47.668Z,62.40
2018-12-29T12:46:15.235Z,32.73
2018-12-29T12:48:42.624Z,33.00
2018-12-29T12:51:09.979Z,28.13
2018-12-29T12:53:37.372Z,34.43
2018-12-29T12:56:04.573Z,28.67
2018-12-29T12:58:31.982Z,30.83
2018-12-29T13:00:59.777Z,34.70
2018-12-29T13:03:27.344Z,29.40
2018-12-29T13:05:58.454Z,34.37
2018-12-29T13:08:25.775Z,36.87
2018-12-29T13:10:53.143Z,34.57
2018-12-29T13:13:20.458Z,32.17
2018-12-29T13:15:47.621Z,37.20
2018-12-29T13:18:17.729Z,35.80
2018-12-29T13:20:45.161Z,37.20
2018-12-29T13:23:12.422Z,34.37
2018-12-29T13:25:39.739Z,35.97
2018-12-29T13:28:07.148Z,33.50
2018-12-29T13:30:34.843Z,33.13
2018-12-29T13:33:02.257Z,47.63
2018-12-29T13:35:29.611Z,32.43
2018-12-29T13:37:57.031Z,34.53
2018-12-29T13:40:24.425Z,27.93
2018-12-29T13:42:51.723Z,29.97
2018-12-29T13:45:19.077Z,34.63
2018-12-29T13:47:46.405Z,29.73
2018-12-29T13:50:13.675Z,53.77
2018-12-29T13:52:41.110Z,28.20
2018-12-29T13:55:08.532Z,30.17
2018-12-29T13:57:37.282Z,29.37
2018-12-29T14:00:04.653Z,28.40
2018-12-29T14:02:32.037Z,29.73
2018-12-29T14:04:59.445Z,30.07
2018-12-29T14:07:26.856Z,27.47
2018-12-29T14:09:54.409Z,39.20
2018-12-29T14:12:21.829Z,30.00
2018-12-29T14:14:49.258Z,33.93
2018-12-29T14:17:16.567Z,31.93
2018-12-29T14:19:44.709Z,30.97
2018-12-29T14:22:11.954Z,36.33
2018-12-29T14:24:39.240Z,31.43
2018-12-29T14:27:06.651Z,31.03
2018-12-29T14:29:33.938Z,32.17
2018-12-29T14:32:01.319Z,31.50
2018-12-29T14:34:28.628Z,34.37
2018-12-29T14:36:56.210Z,33.30
2018-12-29T14:39:27.510Z,31.67
2018-12-29T14:41:54.804Z,32.80
2018-12-29T14:44:22.068Z,32.37
2018-12-29T14:46:49.367Z,30.00
2018-12-29T14:49:16.817Z,35.87
2018-12-29T14:51:44.132Z,33.40
2018-12-29T14:54:11.498Z,34.07
2018-12-29T14:56:38.776Z,36.00
2018-12-29T14:59:06.055Z,37.27
2018-12-29T15:01:33.457Z,33.77
2018-12-29T15:04:00.842Z,35.97
2018-12-29T15:06:28.219Z,36.77
2018-12-29T15:08:55.514Z,62.20
2018-12-29T15:11:22.689Z,43.40
2018-12-29T15:13:50.184Z,46.47
2018-12-29T15:16:17.498Z,37.33
2018-12-29T15:18:47.610Z,95.37
2018-12-29T15:21:14.874Z,42.10
2018-12-29T15:23:42.244Z,37.53
2018-12-29T15:26:09.773Z,38.87
2018-12-29T15:28:37.132Z,52.17
2018-12-29T15:31:04.461Z,53.10
2018-12-29T15:33:32.112Z,69.43
2018-12-29T15:35:59.436Z,59.13
2018-12-29T15:38:26.777Z,65.73
2018-12-29T15:40:54.239Z,84.90
2018-12-29T15:43:21.559Z,55.27
2018-12-29T15:45:48.888Z,49.10
2018-12-29T15:48:16.438Z,46.27
2018-12-29T15:50:43.756Z,47.60
2018-12-29T15:53:11.080Z,43.87
2018-12-29T15:55:38.508Z,43.33
2018-12-29T15:58:06.062Z,37.03
2018-12-29T16:00:35.831Z,37.77
2018-12-29T16:03:03.535Z,34.67
2018-12-29T16:05:31.290Z,37.27
2018-12-29T16:07:58.892Z,35.10
2018-12-29T16:12:44.158Z,33.10
2018-12-29T16:15:11.739Z,27.83
2018-12-29T16:17:38.955Z,18.87
2018-12-29T16:20:06.238Z,12.13
2018-12-29T16:22:35.934Z,10.30
2018-12-29T16:25:05.302Z,8.83
2018-12-29T16:27:32.637Z,9.75
2018-12-29T16:29:59.935Z,9.98
2018-12-29T16:32:27.311Z,8.60
2018-12-29T16:34:55.033Z,11.22
2018-12-29T16:38:19.707Z,26.97
2018-12-29T16:40:49.346Z,27.60
2018-12-29T16:43:16.721Z,30.88
2018-12-29T16:45:44.070Z,31.77
2018-12-29T16:48:11.641Z,34.35
2018-12-29T16:50:39.004Z,34.33
2018-12-29T16:53:06.375Z,33.37
2018-12-29T16:55:33.730Z,33.40
2018-12-29T16:58:01.330Z,35.87
2018-12-29T17:00:28.590Z,32.50
2018-12-29T17:02:55.945Z,37.60
2018-12-29T17:05:23.313Z,36.20
2018-12-29T17:07:50.985Z,36.90
2018-12-29T17:10:18.435Z,36.77
2018-12-29T17:12:45.685Z,35.47
2018-12-29T17:15:13.365Z,40.57
2018-12-29T17:17:40.712Z,34.23
2018-12-29T17:20:08.093Z,38.57
2018-12-29T17:22:35.759Z,36.43
2018-12-29T17:25:03.121Z,38.37
2018-12-29T17:27:30.523Z,38.03
2018-12-29T17:29:57.978Z,46.80
2018-12-29T17:32:25.377Z,41.77
2018-12-29T17:34:52.778Z,38.37
2018-12-29T17:37:20.162Z,40.87
2018-12-29T17:39:47.528Z,33.67
2018-12-29T17:42:14.911Z,35.70
2018-12-29T17:44:42.295Z,38.57
2018-12-29T17:47:09.661Z,33.87
2018-12-29T17:49:36.790Z,37.13
2018-12-29T17:52:04.270Z,36.93
2018-12-29T17:54:31.669Z,42.73
2018-12-29T17:56:59.078Z,43.53
2018-12-29T17:59:26.340Z,44.60
2018-12-29T18:01:53.720Z,43.67
2018-12-29T18:04:21.008Z,43.80
2018-12-29T18:06:48.246Z,43.20
2018-12-29T18:09:15.612Z,38.83
2018-12-29T18:11:42.866Z,40.83
2018-12-29T18:14:10.250Z,41.17
2018-12-29T18:16:37.489Z,37.50
2018-12-29T18:19:04.873Z,40.27
2018-12-29T18:21:32.229Z,37.27
2018-12-29T18:23:59.485Z,40.27
2018-12-29T18:26:28.947Z,46.37
2018-12-29T18:28:56.191Z,42.03
2018-12-29T18:31:23.564Z,37.47
2018-12-29T18:33:50.907Z,40.70
2018-12-29T18:36:18.266Z,46.30
2018-12-29T18:38:45.633Z,43.83
2018-12-29T18:41:12.938Z,45.20
2018-12-29T18:43:40.305Z,53.70
2018-12-29T18:46:07.554Z,56.80
2018-12-29T18:48:34.900Z,52.10
2018-12-29T18:51:02.239Z,42.27
2018-12-29T18:53:29.588Z,45.20
2018-12-29T18:55:56.788Z,40.70
2018-12-29T18:58:24.189Z,45.43
2018-12-29T19:00:51.544Z,40.50
2018-12-29T19:03:18.914Z,40.80
2018-12-29T19:05:46.402Z,41.77
2018-12-29T19:08:13.812Z,41.20
2018-12-29T19:10:41.189Z,46.60
2018-12-29T19:13:08.835Z,46.03
2018-12-29T19:15:36.515Z,42.50
2018-12-29T19:18:03.871Z,37.70
2018-12-29T19:20:31.412Z,37.47
2018-12-29T19:22:58.795Z,41.87
2018-12-29T19:25:26.157Z,55.70
2018-12-29T19:27:53.527Z,37.83
2018-12-29T19:30:21.321Z,39.50
2018-12-29T19:32:48.971Z,39.17
2018-12-29T19:35:16.339Z,48.90
2018-12-29T19:37:43.829Z,36.90
2018-12-29T19:40:11.180Z,38.80
2018-12-29T19:42:38.536Z,42.77
2018-12-29T19:45:09.008Z,42.73
2018-12-29T19:47:36.379Z,41.73
2018-12-29T19:50:04.054Z,38.60
2018-12-29T19:52:31.501Z,37.07
2018-12-29T19:54:58.851Z,38.80
2018-12-29T19:57:26.532Z,36.00
2018-12-29T19:59:53.919Z,39.90
2018-12-29T20:02:21.580Z,35.83
2018-12-29T20:04:49.148Z,37.60
2018-12-29T20:07:16.862Z,36.13
2018-12-29T20:09:44.290Z,52.30
2018-12-29T20:12:11.676Z,39.13
2018-12-29T20:14:39.020Z,34.83
2018-12-29T20:17:06.614Z,35.03
2018-12-29T20:19:34.019Z,42.47
2018-12-29T20:22:01.383Z,37.90
2018-12-29T20:24:28.735Z,35.80
2018-12-29T20:26:56.081Z,36.40
2018-12-29T20:29:25.757Z,35.57
2018-12-29T20:31:53.120Z,37.13
2018-12-29T20:34:20.465Z,43.43
2018-12-29T20:36:48.019Z,41.97
2018-12-29T20:39:15.334Z,39.63
2018-12-29T20:41:42.790Z,36.93
2018-12-29T20:44:10.086Z,48.37
2018-12-29T20:46:37.455Z,46.07
2018-12-29T20:49:04.782Z,53.13
2018-12-29T20:51:32.442Z,44.83
2018-12-29T20:53:59.844Z,52.97
2018-12-29T20:56:28.481Z,51.27
2018-12-29T20:58:55.831Z,51.93
2018-12-29T21:01:23.150Z,49.03
2018-12-29T21:03:50.506Z,52.03
2018-12-29T21:06:18.067Z,58.23
2018-12-29T21:08:45.467Z,52.43
2018-12-29T21:11:12.718Z,54.67
2018-12-29T21:13:40.095Z,60.17
2018-12-29T21:16:07.437Z,59.07
2018-12-29T21:18:34.779Z,65.30
2018-12-29T21:21:02.443Z,63.67
2018-12-29T21:23:29.843Z,67.67
2018-12-29T21:25:57.212Z,64.47
2018-12-29T21:28:24.473Z,59.13
2018-12-29T21:30:51.872Z,70.43
2018-12-29T21:33:19.238Z,62.53
2018-12-29T21:35:46.471Z,59.43
2018-12-29T21:38:13.881Z,57.97
2018-12-29T21:40:41.112Z,55.90
2018-12-29T21:43:08.666Z,59.23
2018-12-29T21:45:35.964Z,57.50
2018-12-29T21:48:03.354Z,53.50
2018-12-29T21:50:30.734Z,53.27
2018-12-29T21:52:59.082Z,56.17
2018-12-29T21:55:26.477Z,55.87
2018-12-29T21:57:53.843Z,59.33
2018-12-29T22:00:21.183Z,54.77
2018-12-29T22:02:48.454Z,55.13
2018-12-29T22:05:15.819Z,55.33
2018-12-29T22:07:43.215Z,57.77
2018-12-29T22:10:10.602Z,53.63
2018-12-29T22:12:37.855Z,51.80
2018-12-29T22:15:07.412Z,51.50
2018-12-29T22:17:34.753Z,55.10
2018-12-29T22:20:01.914Z,51.27
2018-12-29T22:22:29.735Z,54.90
2018-12-29T22:24:57.096Z,55.90
2018-12-29T22:27:24.476Z,52.47
2018-12-29T22:29:51.860Z,53.10
2018-12-29T22:32:19.109Z,52.53
2018-12-29T22:34:46.508Z,51.10
2018-12-29T22:37:14.119Z,54.57
2018-12-29T22:39:41.332Z,56.00
2018-12-29T22:42:08.722Z,54.17
2018-12-29T22:44:36.014Z,51.80
2018-12-29T22:47:03.417Z,53.07
2018-12-29T22:49:30.783Z,54.53
2018-12-29T22:51:58.442Z,51.67
2018-12-29T22:54:25.821Z,54.27
2018-12-29T22:56:54.581Z,49.57
2018-12-29T22:59:21.959Z,55.83
2018-12-29T23:01:49.217Z,52.93
2018-12-29T23:04:16.599Z,55.37
2018-12-29T23:06:43.973Z,55.87
2018-12-29T23:09:11.635Z,59.43
2018-12-29T23:11:39.023Z,57.90
2018-12-29T23:14:06.407Z,70.07
2018-12-29T23:16:33.815Z,67.63
2018-12-29T23:19:03.967Z,65.57
2018-12-29T23:21:31.325Z,66.60
2018-12-29T23:23:59.992Z,71.30
2018-12-29T23:26:27.362Z,65.47
2018-12-29T23:28:54.626Z,75.03
2018-12-29T23:31:22.001Z,77.97
2018-12-29T23:33:49.374Z,75.83
2018-12-29T23:36:17.074Z,74.93
2018-12-29T23:38:44.344Z,72.10
2018-12-29T23:41:11.710Z,82.17
2018-12-29T23:43:39.305Z,70.13
2018-12-29T23:46:06.664Z,72.23
2018-12-29T23:48:34.020Z,69.17
2018-12-29T23:51:05.564Z,81.60
2018-12-29T23:53:30.602Z,69.70
2018-12-29T23:55:58.167Z,71.00
2018-12-29T23:58:25.561Z,74.67
